createdAt,value
2017-12-15T00:13:35.277Z,95867.12
2017-12-15T00:34:12.740Z,95872.30
2017-12-15T00:54:46.481Z,95895.66
2017-12-15T01:15:21.762Z,95894.33
2017-12-15T01:35:56.708Z,95930.92
2017-12-15T01:56:33.227Z,95990.61
2017-12-15T02:17:07.445Z,96054.69
2017-12-15T02:37:43.448Z,96075.48
2017-12-15T02:58:16.896Z,96117.22
2017-12-15T03:18:52.763Z,96116.02
2017-12-15T03:39:27.108Z,96131.41
2017-12-15T04:00:03.304Z,96131.97
2017-12-15T04:20:38.573Z,96153.20
2017-12-15T04:41:14.769Z,96167.77
2017-12-15T05:01:48.197Z,96178.47
2017-12-15T05:22:23.162Z,96215.23
2017-12-15T05:42:57.205Z,96239.08
2017-12-15T06:03:33.704Z,96221.62
2017-12-15T06:24:08.669Z,96229.70
2017-12-15T06:44:44.244Z,96228.41
2017-12-15T07:05:15.226Z,96223.64
2017-12-15T07:25:48.647Z,96213.03
2017-12-15T07:46:24.065Z,96220.18
2017-12-15T08:06:55.198Z,96220.76
2017-12-15T08:27:26.164Z,96232.02
2017-12-15T08:48:01.440Z,96240.25
2017-12-15T09:08:35.790Z,96248.21
2017-12-15T09:29:08.911Z,96259.34
2017-12-15T09:49:42.033Z,96268.94
2017-12-15T10:10:19.564Z,96266.53
2017-12-15T10:30:58.835Z,96267.88
2017-12-15T10:51:38.105Z,96262.98
2017-12-15T11:12:15.100Z,96277.95
2017-12-15T11:32:50.629Z,96280.64
2017-12-15T11:53:26.564Z,96305.33
2017-12-15T12:14:00.038Z,96321.64
2017-12-15T12:34:34.035Z,96341.81
2017-12-15T12:55:06.235Z,96373.66
2017-12-15T13:15:41.815Z,96398.90
2017-12-15T13:36:16.775Z,96391.80
2017-12-15T13:56:52.979Z,96427.14
2017-12-15T14:17:26.092Z,96439.02
2017-12-15T14:38:01.363Z,96455.52
2017-12-15T14:58:36.636Z,96472.05
2017-12-15T15:19:12.825Z,96467.62
2017-12-15T15:39:48.377Z,96474.55
2017-12-15T16:00:23.373Z,96486.89
2017-12-15T16:20:57.416Z,96501.19
2017-12-15T16:41:30.844Z,96500.75
2017-12-15T17:02:03.964Z,96513.17
2017-12-15T17:22:37.084Z,96516.99
2017-12-15T17:43:12.356Z,96532.75
2017-12-15T18:03:48.550Z,96540.56
2017-12-15T18:24:25.977Z,96549.77
2017-12-15T18:45:00.020Z,96580.60
2017-12-15T19:05:35.293Z,96597.86
2017-12-15T19:26:07.492Z,96614.78
2017-12-15T19:46:44.003Z,96639.31
2017-12-15T20:07:18.958Z,96655.16
2017-12-15T20:27:54.226Z,96663.55
2017-12-15T20:48:29.500Z,96682.61
2017-12-15T21:09:05.697Z,96701.47
2017-12-15T21:29:41.890Z,96719.77
2017-12-15T21:50:15.376Z,96736.59
2017-12-15T22:10:48.441Z,96764.28
2017-12-15T22:31:22.480Z,96786.86
2017-12-15T22:51:57.755Z,96810.55
2017-12-15T23:12:33.023Z,96825.24
2017-12-15T23:33:06.149Z,96842.92
2017-12-15T23:53:41.416Z,96861.06
